createdAt,value
2022-09-14T00:00:10.268Z,18.40
2022-09-14T00:02:42.827Z,18.40
2022-09-14T00:05:13.233Z,18.40
2022-09-14T00:07:43.648Z,18.60
2022-09-14T00:10:14.069Z,18.50
2022-09-14T00:12:44.317Z,18.40
2022-09-14T00:15:17.289Z,18.40
2022-09-14T00:17:47.549Z,18.20
2022-09-14T00:20:17.789Z,18.20
2022-09-14T00:22:48.631Z,18.30
2022-09-14T00:25:18.858Z,18.30
2022-09-14T00:27:49.061Z,18.20
2022-09-14T00:30:23.747Z,18.10
2022-09-14T00:32:54.794Z,18.20
2022-09-14T00:35:24.868Z,18.20
2022-09-14T00:37:55.092Z,18.20
2022-09-14T00:40:25.982Z,18.20
2022-09-14T00:42:56.509Z,18.20
2022-09-14T00:45:31.246Z,18.20
2022-09-14T00:48:01.488Z,18.20
2022-09-14T00:50:31.676Z,18.30
2022-09-14T00:53:01.885Z,18.20
2022-09-14T00:55:32.341Z,18.20
2022-09-14T00:58:02.683Z,18.10
2022-09-14T01:00:35.516Z,18.10
2022-09-14T01:03:05.791Z,18.10
2022-09-14T01:05:52.974Z,18.10
2022-09-14T01:08:36.068Z,18.10
2022-09-14T01:11:19.975Z,18.10
2022-09-14T01:13:58.919Z,18.00
2022-09-14T01:16:40.599Z,18.00
2022-09-14T01:19:21.924Z,18.10
2022-09-14T01:22:02.690Z,17.90
2022-09-14T01:24:45.662Z,18.00
2022-09-14T01:27:28.189Z,17.80
2022-09-14T01:30:09.600Z,17.90
2022-09-14T01:32:45.755Z,17.80
2022-09-14T01:35:22.578Z,17.70
2022-09-14T01:37:56.890Z,17.70
2022-09-14T01:40:33.091Z,17.80
2022-09-14T01:43:10.973Z,17.90
2022-09-14T01:45:45.360Z,17.80
2022-09-14T01:48:18.974Z,17.70
2022-09-14T01:50:51.652Z,17.70
2022-09-14T01:53:26.294Z,17.70
2022-09-14T01:56:01.821Z,17.70
2022-09-14T01:58:39.688Z,17.70
2022-09-14T02:01:14.534Z,17.70
2022-09-14T02:03:49.746Z,17.60
2022-09-14T02:06:26.123Z,17.40
2022-09-14T02:08:56.857Z,17.30
2022-09-14T02:11:26.784Z,17.10
2022-09-14T02:13:59.578Z,17.30
2022-09-14T02:16:30.226Z,17.40
2022-09-14T02:19:01.858Z,17.40
2022-09-14T02:21:34.489Z,17.40
2022-09-14T02:24:05.752Z,17.40
2022-09-14T02:26:36.648Z,17.40
2022-09-14T02:29:09.552Z,17.00
2022-09-14T02:31:57.129Z,17.20
2022-09-14T02:34:33.657Z,17.20
2022-09-14T02:37:13.320Z,17.20
2022-09-14T02:39:50.782Z,17.30
2022-09-14T02:42:31.712Z,17.20
2022-09-14T02:45:11.327Z,17.00
2022-09-14T02:47:50.203Z,16.90
2022-09-14T02:50:26.718Z,16.90
2022-09-14T02:53:04.587Z,17.00
2022-09-14T02:55:40.186Z,17.00
2022-09-14T02:58:12.070Z,17.10
2022-09-14T03:00:46.558Z,17.00
2022-09-14T03:03:18.875Z,17.00
2022-09-14T03:05:49.255Z,17.10
2022-09-14T03:08:19.593Z,17.10
2022-09-14T03:10:49.806Z,17.10
2022-09-14T03:13:20.429Z,17.10
2022-09-14T03:15:53.375Z,17.30
2022-09-14T03:18:23.904Z,17.10
2022-09-14T03:20:53.989Z,17.20
2022-09-14T03:23:24.213Z,17.10
2022-09-14T03:25:54.457Z,17.10
2022-09-14T03:28:24.737Z,17.20
2022-09-14T03:30:57.541Z,17.20
2022-09-14T03:33:27.891Z,17.30
2022-09-14T03:35:57.936Z,17.20
2022-09-14T03:38:30.315Z,17.20
2022-09-14T03:41:00.441Z,17.30
2022-09-14T03:43:31.218Z,17.30
2022-09-14T03:46:07.390Z,17.40
2022-09-14T03:48:37.638Z,17.30
2022-09-14T03:51:09.836Z,17.30
2022-09-14T03:53:40.850Z,17.30
2022-09-14T03:56:12.370Z,17.10
2022-09-14T03:58:42.755Z,17.20
2022-09-14T04:01:17.404Z,17.20
2022-09-14T04:03:48.486Z,17.20
2022-09-14T04:06:19.240Z,17.30
2022-09-14T04:08:49.816Z,17.30
2022-09-14T04:11:22.214Z,17.10
2022-09-14T04:13:53.214Z,17.00
2022-09-14T04:16:26.107Z,16.90
2022-09-14T04:18:56.893Z,16.80
2022-09-14T04:21:28.493Z,16.80
2022-09-14T04:24:14.490Z,16.70
2022-09-14T04:26:46.735Z,16.60
2022-09-14T04:29:17.424Z,16.80
2022-09-14T04:31:50.359Z,16.80
2022-09-14T04:34:20.766Z,16.90
2022-09-14T04:36:50.879Z,16.80
2022-09-14T04:39:21.616Z,16.70
2022-09-14T04:41:52.127Z,16.70
2022-09-14T04:44:22.347Z,16.70
2022-09-14T04:46:55.366Z,16.70
2022-09-14T04:49:25.579Z,16.70
2022-09-14T04:51:55.665Z,16.80
2022-09-14T04:54:25.845Z,16.80
2022-09-14T04:56:55.971Z,16.70
2022-09-14T04:59:26.271Z,16.60
2022-09-14T05:01:59.055Z,16.60
2022-09-14T05:04:29.392Z,16.60
2022-09-14T05:06:59.389Z,16.60
2022-09-14T05:09:29.435Z,16.60
2022-09-14T05:11:59.477Z,16.50
2022-09-14T05:14:29.651Z,16.50
2022-09-14T05:17:03.284Z,16.40
2022-09-14T05:19:33.580Z,16.40
2022-09-14T05:22:03.545Z,16.40
2022-09-14T05:24:33.701Z,16.30
2022-09-14T05:27:03.630Z,16.30
2022-09-14T05:29:33.778Z,15.50
2022-09-14T05:32:06.628Z,16.30
2022-09-14T05:34:36.906Z,16.20
2022-09-14T05:37:06.901Z,16.20
2022-09-14T05:39:36.863Z,16.20
2022-09-14T05:42:07.129Z,16.00
2022-09-14T05:44:37.107Z,15.90
2022-09-14T05:47:09.729Z,15.80
2022-09-14T05:49:39.867Z,15.90
2022-09-14T05:52:09.859Z,15.90
2022-09-14T05:54:39.848Z,15.90
2022-09-14T05:57:09.879Z,16.00
2022-09-14T05:59:39.945Z,16.00
2022-09-14T06:02:17.455Z,15.90
2022-09-14T06:04:49.141Z,15.90
2022-09-14T06:07:19.273Z,15.80
2022-09-14T06:09:49.428Z,15.80
2022-09-14T06:12:19.444Z,15.80
2022-09-14T06:14:49.571Z,15.70
2022-09-14T06:17:22.227Z,15.70
2022-09-14T06:19:52.306Z,15.80
2022-09-14T06:22:22.331Z,15.80
2022-09-14T06:24:52.639Z,15.80
2022-09-14T06:27:22.746Z,15.80
2022-09-14T06:29:54.197Z,15.70
2022-09-14T06:32:27.454Z,15.70
2022-09-14T06:34:57.439Z,15.70
2022-09-14T06:37:27.430Z,15.80
2022-09-14T06:39:57.514Z,15.70
2022-09-14T06:42:27.511Z,15.80
2022-09-14T06:44:57.551Z,15.70
2022-09-14T06:47:34.819Z,15.70
2022-09-14T06:50:05.073Z,15.70
2022-09-14T06:52:35.011Z,15.70
2022-09-14T06:55:05.093Z,15.70
2022-09-14T06:57:35.054Z,15.70
2022-09-14T07:00:05.807Z,15.60
2022-09-14T07:02:38.455Z,15.70
2022-09-14T07:05:09.042Z,15.70
2022-09-14T07:07:39.164Z,15.70
2022-09-14T07:10:11.806Z,15.70
2022-09-14T07:12:41.905Z,15.70
2022-09-14T07:15:12.701Z,15.70
2022-09-14T07:17:48.021Z,15.70
2022-09-14T07:20:18.361Z,15.70
2022-09-14T07:22:48.291Z,15.60
2022-09-14T07:25:18.453Z,15.60
2022-09-14T07:27:48.419Z,15.70
2022-09-14T07:30:18.728Z,15.70
2022-09-14T07:32:51.277Z,15.70
2022-09-14T07:35:21.283Z,15.60
2022-09-14T07:37:51.302Z,15.60
2022-09-14T07:40:23.190Z,15.60
2022-09-14T07:42:57.634Z,15.70
2022-09-14T07:45:27.995Z,15.70
2022-09-14T07:48:01.066Z,15.60
2022-09-14T07:50:31.117Z,15.70
2022-09-14T07:53:01.088Z,15.70
2022-09-14T07:55:31.220Z,15.70
2022-09-14T07:58:01.370Z,15.70
2022-09-14T08:00:31.685Z,15.70
2022-09-14T08:03:04.408Z,15.70
2022-09-14T08:05:34.521Z,15.70
2022-09-14T08:08:04.837Z,15.60
2022-09-14T08:10:38.230Z,15.60
2022-09-14T08:13:08.455Z,15.60
2022-09-14T08:15:39.995Z,15.60
2022-09-14T08:18:12.752Z,15.60
2022-09-14T08:20:42.996Z,15.60
2022-09-14T08:23:13.334Z,15.70
2022-09-14T08:25:43.419Z,15.80
2022-09-14T08:28:13.556Z,15.80
2022-09-14T08:30:43.772Z,15.80
2022-09-14T08:33:16.541Z,15.90
2022-09-14T08:35:57.963Z,15.90
2022-09-14T08:38:28.398Z,15.90
2022-09-14T08:40:59.414Z,15.90
2022-09-14T08:43:30.794Z,16.00
2022-09-14T08:46:07.516Z,16.00
2022-09-14T08:48:51.029Z,16.00
2022-09-14T08:51:21.418Z,15.90
2022-09-14T08:53:53.759Z,15.90
2022-09-14T08:56:28.011Z,15.90
2022-09-14T08:59:26.892Z,16.00
2022-09-14T09:02:08.619Z,16.00
2022-09-14T09:04:49.078Z,16.00
2022-09-14T09:07:25.508Z,16.00
2022-09-14T09:09:59.147Z,16.00
2022-09-14T09:12:37.613Z,16.00
2022-09-14T09:15:18.962Z,16.00
2022-09-14T09:17:51.574Z,16.00
2022-09-14T09:20:27.103Z,16.00
2022-09-14T09:23:14.844Z,15.90
2022-09-14T09:25:58.094Z,16.00
2022-09-14T09:28:29.499Z,15.80
2022-09-14T09:31:05.063Z,15.60
2022-09-14T09:33:36.061Z,15.50
2022-09-14T09:36:09.157Z,15.40
2022-09-14T09:38:39.118Z,15.50
2022-09-14T09:41:16.503Z,15.40
2022-09-14T09:44:02.051Z,15.40
2022-09-14T09:46:34.425Z,15.40
2022-09-14T09:49:08.039Z,15.40
2022-09-14T09:51:41.076Z,15.50
2022-09-14T09:54:21.495Z,15.50
2022-09-14T09:56:56.421Z,15.00
2022-09-14T09:59:35.463Z,15.50
2022-09-14T10:02:27.110Z,15.40
2022-09-14T10:05:03.071Z,15.30
2022-09-14T10:07:38.682Z,15.30
2022-09-14T10:10:11.209Z,15.30
2022-09-14T10:12:48.253Z,15.30
2022-09-14T10:15:21.615Z,15.20
2022-09-14T10:18:09.838Z,15.30
2022-09-14T10:20:41.476Z,15.30
2022-09-14T10:23:29.072Z,15.00
2022-09-14T10:26:24.945Z,15.00
2022-09-14T10:28:55.426Z,15.10
2022-09-14T10:31:32.088Z,15.20
2022-09-14T10:34:03.147Z,15.30
2022-09-14T10:36:34.860Z,15.20
2022-09-14T10:39:22.043Z,15.20
2022-09-14T10:41:58.347Z,15.30
2022-09-14T10:44:55.187Z,15.40
2022-09-14T10:47:52.702Z,15.40
2022-09-14T10:50:35.619Z,15.40
2022-09-14T10:53:15.207Z,15.40
2022-09-14T10:55:54.440Z,15.30
2022-09-14T10:58:36.576Z,15.40
2022-09-14T11:01:24.284Z,15.40
2022-09-14T11:04:04.895Z,15.40
2022-09-14T11:06:46.847Z,15.50
2022-09-14T11:09:24.989Z,15.50
2022-09-14T11:12:07.931Z,15.50
2022-09-14T11:14:49.925Z,15.50
2022-09-14T11:17:37.678Z,15.50
2022-09-14T11:20:16.955Z,15.50
2022-09-14T11:22:52.506Z,15.40
2022-09-14T11:25:26.203Z,15.40
2022-09-14T11:28:02.841Z,15.40
2022-09-14T11:30:41.134Z,15.50
2022-09-14T11:33:21.494Z,15.50
2022-09-14T11:35:56.229Z,15.50
2022-09-14T11:38:31.048Z,15.50
2022-09-14T11:41:05.740Z,15.60
2022-09-14T11:43:45.491Z,15.60
2022-09-14T11:46:19.248Z,15.60
2022-09-14T11:48:56.377Z,15.70
2022-09-14T11:51:30.007Z,15.70
2022-09-14T11:54:00.175Z,15.80
2022-09-14T11:56:32.389Z,15.80
2022-09-14T11:59:07.290Z,15.80
2022-09-14T12:01:39.482Z,15.90
2022-09-14T12:04:17.982Z,15.90
2022-09-14T12:06:58.851Z,15.80
2022-09-14T12:09:43.074Z,15.90
2022-09-14T12:12:48.968Z,15.80
2022-09-14T12:15:37.031Z,15.90
2022-09-14T12:18:26.149Z,15.90
2022-09-14T12:21:09.026Z,15.90
2022-09-14T12:23:52.558Z,15.90
2022-09-14T12:26:41.502Z,15.90
2022-09-14T12:29:30.791Z,15.90
2022-09-14T12:32:41.006Z,15.90
2022-09-14T12:35:41.009Z,15.90
2022-09-14T12:38:44.034Z,15.90
2022-09-14T12:41:44.079Z,15.80
2022-09-14T12:44:32.541Z,15.90
2022-09-14T12:47:37.724Z,16.00
2022-09-14T12:50:17.379Z,16.00
2022-09-14T12:52:59.796Z,16.00
2022-09-14T12:55:48.942Z,16.00
2022-09-14T12:58:32.532Z,16.00
2022-09-14T13:01:20.629Z,16.00
2022-09-14T13:03:53.607Z,16.00
2022-09-14T13:06:33.275Z,17.40
2022-09-14T13:09:08.920Z,16.10
2022-09-14T13:11:43.968Z,16.10
2022-09-14T13:14:20.886Z,16.10
2022-09-14T13:16:53.044Z,16.10
2022-09-14T13:19:26.590Z,16.10
2022-09-14T13:22:02.289Z,16.20
2022-09-14T13:24:35.020Z,16.20
2022-09-14T13:27:07.199Z,16.20
2022-09-14T13:29:37.541Z,16.20
2022-09-14T13:32:07.862Z,16.10
2022-09-14T13:34:41.641Z,16.20
2022-09-14T13:37:17.538Z,16.20
2022-09-14T13:39:54.081Z,16.10
2022-09-14T13:42:26.202Z,16.20
2022-09-14T13:44:56.885Z,16.10
2022-09-14T13:47:28.648Z,16.20
2022-09-14T13:50:00.549Z,16.30
2022-09-14T13:53:00.615Z,16.20
2022-09-14T13:55:31.359Z,16.10
2022-09-14T13:58:27.068Z,16.00
2022-09-14T14:01:04.324Z,16.10
2022-09-14T14:03:38.908Z,16.10
2022-09-14T14:06:23.940Z,16.10
2022-09-14T14:09:09.643Z,16.20
2022-09-14T14:11:42.258Z,16.10
2022-09-14T14:14:21.632Z,16.10
2022-09-14T14:17:21.798Z,16.00
2022-09-14T14:19:52.544Z,16.10
2022-09-14T14:22:24.556Z,16.10
2022-09-14T14:25:14.565Z,16.20
2022-09-14T14:27:47.273Z,16.20
2022-09-14T14:30:20.459Z,16.10
2022-09-14T14:32:53.764Z,16.10
2022-09-14T14:35:26.996Z,16.20
2022-09-14T14:37:57.974Z,16.20
2022-09-14T14:40:32.316Z,16.20
2022-09-14T14:43:04.595Z,16.10
2022-09-14T14:45:36.673Z,16.20
2022-09-14T14:48:08.624Z,16.20
2022-09-14T14:50:38.870Z,16.30
2022-09-14T14:53:09.689Z,16.30
2022-09-14T14:55:42.391Z,16.30
2022-09-14T14:58:18.880Z,16.30
2022-09-14T15:00:50.194Z,16.40
2022-09-14T15:03:21.644Z,16.20
2022-09-14T15:05:52.676Z,16.40
2022-09-14T15:08:23.168Z,16.40
2022-09-14T15:10:59.204Z,16.40
2022-09-14T15:13:29.555Z,16.40
2022-09-14T15:15:59.687Z,16.50
2022-09-14T15:18:29.964Z,16.50
2022-09-14T15:21:00.374Z,16.50
2022-09-14T15:23:30.653Z,16.50
2022-09-14T15:26:03.476Z,16.50
2022-09-14T15:28:36.002Z,16.50
2022-09-14T15:31:07.874Z,16.50
2022-09-14T15:33:38.444Z,16.40
2022-09-14T15:36:08.895Z,16.40
2022-09-14T15:38:39.047Z,16.30
2022-09-14T15:41:14.188Z,16.20
2022-09-14T15:43:46.267Z,16.20
2022-09-14T15:46:16.276Z,16.20
2022-09-14T15:48:46.373Z,16.30
2022-09-14T15:51:17.290Z,16.30
2022-09-14T15:53:48.199Z,16.30
2022-09-14T15:56:21.228Z,16.30
2022-09-14T15:58:51.400Z,16.30
2022-09-14T16:01:22.897Z,16.20
2022-09-14T16:03:58.408Z,16.20
2022-09-14T16:06:28.779Z,16.20
2022-09-14T16:08:59.645Z,16.30
2022-09-14T16:11:32.647Z,16.30
2022-09-14T16:14:02.946Z,16.30
2022-09-14T16:16:33.200Z,16.40
2022-09-14T16:19:08.900Z,16.40
2022-09-14T16:21:39.423Z,16.40
2022-09-14T16:24:11.855Z,16.30
2022-09-14T16:26:45.270Z,16.40
2022-09-14T16:29:18.837Z,16.40
2022-09-14T16:31:51.036Z,16.30
2022-09-14T16:34:24.083Z,16.40
2022-09-14T16:36:55.516Z,16.30
2022-09-14T16:39:28.118Z,16.30
2022-09-14T16:42:00.817Z,16.30
2022-09-14T16:44:31.682Z,16.30
2022-09-14T16:47:01.584Z,16.30
2022-09-14T16:49:31.824Z,16.30
2022-09-14T16:52:02.785Z,16.20
2022-09-14T16:54:33.289Z,16.20
2022-09-14T16:57:06.307Z,16.20
2022-09-14T16:59:36.575Z,16.20
2022-09-14T17:02:06.994Z,16.20
2022-09-14T17:04:37.485Z,16.20
2022-09-14T17:07:07.957Z,16.20
2022-09-14T17:09:38.403Z,16.30
2022-09-14T17:12:11.703Z,16.20
2022-09-14T17:14:42.535Z,16.30
2022-09-14T17:17:12.388Z,16.30
2022-09-14T17:19:43.763Z,16.30
2022-09-14T17:22:14.246Z,16.30
2022-09-14T17:24:44.401Z,16.30
2022-09-14T17:27:18.925Z,16.30
2022-09-14T17:29:49.285Z,16.30
2022-09-14T17:32:19.582Z,16.30
2022-09-14T17:34:50.024Z,16.30
2022-09-14T17:37:20.130Z,16.30
2022-09-14T17:39:51.008Z,16.30
2022-09-14T17:42:23.846Z,16.20
2022-09-14T17:44:54.043Z,16.20
2022-09-14T17:47:26.546Z,16.20
2022-09-14T17:49:56.665Z,16.20
2022-09-14T17:52:26.859Z,16.20
2022-09-14T17:54:57.038Z,16.20
2022-09-14T17:57:29.906Z,16.20
2022-09-14T18:00:00.064Z,16.20
2022-09-14T18:02:30.240Z,16.10
2022-09-14T18:05:00.631Z,16.10
2022-09-14T18:07:31.355Z,16.10
2022-09-14T18:10:01.580Z,16.10
2022-09-14T18:12:36.594Z,16.20
2022-09-14T18:15:07.750Z,16.20
2022-09-14T18:17:37.969Z,16.20
2022-09-14T18:20:09.812Z,16.10
2022-09-14T18:22:40.326Z,16.10
2022-09-14T18:25:12.361Z,16.10
2022-09-14T18:27:45.127Z,16.10
2022-09-14T18:30:16.617Z,16.00
2022-09-14T18:32:47.291Z,16.00
2022-09-14T18:35:18.033Z,16.00
2022-09-14T18:37:48.110Z,16.00
2022-09-14T18:40:20.404Z,16.00
2022-09-14T18:42:53.327Z,15.90
2022-09-14T18:45:23.602Z,15.80
2022-09-14T18:47:53.725Z,15.80
2022-09-14T18:50:23.962Z,15.70
2022-09-14T18:52:54.396Z,15.70
2022-09-14T18:55:25.229Z,15.60
2022-09-14T18:57:57.745Z,15.60
2022-09-14T19:00:28.327Z,15.70
2022-09-14T19:03:00.099Z,15.60
2022-09-14T19:05:32.210Z,15.60
2022-09-14T19:08:03.099Z,15.60
2022-09-14T19:10:33.213Z,15.50
2022-09-14T19:13:06.106Z,15.50
2022-09-14T19:15:37.120Z,15.50
2022-09-14T19:18:07.663Z,15.40
2022-09-14T19:21:04.817Z,15.50
2022-09-14T19:26:06.460Z,15.50
2022-09-14T19:28:39.963Z,15.40
2022-09-14T19:31:11.804Z,15.40
2022-09-14T19:33:45.442Z,15.40
2022-09-14T19:36:20.043Z,15.40
2022-09-14T19:38:51.633Z,15.30
2022-09-14T19:41:23.196Z,15.30
2022-09-14T19:43:56.245Z,15.30
2022-09-14T19:46:29.384Z,15.20
2022-09-14T19:49:45.915Z,15.20
2022-09-14T19:54:58.496Z,15.10
2022-09-14T19:57:28.768Z,15.20
2022-09-14T20:00:01.690Z,15.20
2022-09-14T20:02:32.049Z,15.20
2022-09-14T20:05:02.378Z,15.20
2022-09-14T20:07:32.777Z,15.20
2022-09-14T20:10:03.017Z,15.30
2022-09-14T20:12:33.373Z,15.10
2022-09-14T20:15:06.390Z,15.10
2022-09-14T20:17:36.614Z,15.10
2022-09-14T20:20:07.167Z,15.10
2022-09-14T20:22:37.468Z,15.00
2022-09-14T20:25:08.704Z,15.10
2022-09-14T20:27:39.258Z,14.90
2022-09-14T20:30:13.706Z,14.90
2022-09-14T20:32:44.030Z,14.90
2022-09-14T20:35:14.198Z,14.80
2022-09-14T20:37:44.515Z,14.80
2022-09-14T20:40:14.830Z,14.80
2022-09-14T20:42:45.052Z,14.80
2022-09-14T20:45:18.421Z,14.80
2022-09-14T20:47:48.574Z,14.70
2022-09-14T20:50:18.931Z,14.70
2022-09-14T20:52:49.164Z,14.70
2022-09-14T20:55:19.858Z,14.80
2022-09-14T20:57:50.127Z,14.80
2022-09-14T21:00:23.174Z,14.80
2022-09-14T21:02:54.717Z,14.80
2022-09-14T21:05:25.345Z,14.80
2022-09-14T21:07:57.049Z,14.90
2022-09-14T21:10:29.355Z,14.90
2022-09-14T21:12:59.949Z,14.90
2022-09-14T21:15:35.122Z,14.80
2022-09-14T21:18:05.530Z,14.80
2022-09-14T21:20:39.124Z,14.80
2022-09-14T21:23:09.763Z,14.90
2022-09-14T21:25:40.039Z,14.80
2022-09-14T21:28:10.407Z,14.80
2022-09-14T21:30:43.194Z,14.80
2022-09-14T21:33:13.364Z,14.70
2022-09-14T21:35:43.563Z,14.70
2022-09-14T21:38:13.875Z,14.70
2022-09-14T21:40:47.622Z,14.70
2022-09-14T21:43:17.799Z,14.70
2022-09-14T21:45:51.498Z,14.60
2022-09-14T21:48:22.033Z,14.60
2022-09-14T21:50:52.203Z,14.50
2022-09-14T21:53:22.533Z,14.50
2022-09-14T21:55:52.737Z,14.50
2022-09-14T21:58:23.075Z,14.50
2022-09-14T22:01:01.562Z,14.50
2022-09-14T22:03:32.262Z,14.40
2022-09-14T22:06:04.319Z,14.50
2022-09-14T22:08:38.564Z,14.50
2022-09-14T22:11:10.377Z,14.50
2022-09-14T22:13:41.330Z,14.50
2022-09-14T22:16:14.857Z,14.60
2022-09-14T22:18:51.955Z,14.60
2022-09-14T22:21:22.791Z,14.50
2022-09-14T22:23:53.850Z,14.60
2022-09-14T22:26:24.699Z,14.60
2022-09-14T22:28:55.720Z,14.70
2022-09-14T22:31:30.139Z,14.80
2022-09-14T22:34:01.446Z,14.80
2022-09-14T22:39:03.527Z,14.80
2022-09-14T22:41:33.884Z,14.90
2022-09-14T22:44:05.116Z,14.80
2022-09-14T22:46:38.834Z,14.90
2022-09-14T22:49:09.159Z,14.90
2022-09-14T22:51:39.343Z,14.90
2022-09-14T22:54:09.955Z,14.90
2022-09-14T22:56:41.655Z,14.90
2022-09-14T22:59:12.894Z,15.00
2022-09-14T23:01:45.669Z,14.90
2022-09-14T23:04:17.117Z,14.90
2022-09-14T23:06:48.954Z,14.90
2022-09-14T23:09:22.296Z,14.80
2022-09-14T23:11:53.274Z,14.90
2022-09-14T23:14:24.350Z,14.90
2022-09-14T23:16:57.213Z,14.80
2022-09-14T23:19:27.473Z,14.80
2022-09-14T23:21:57.610Z,14.70
2022-09-14T23:24:27.750Z,14.70
2022-09-14T23:26:57.976Z,14.70
2022-09-14T23:29:28.320Z,14.70
2022-09-14T23:32:01.013Z,14.60
2022-09-14T23:34:31.302Z,14.70
2022-09-14T23:37:01.851Z,14.50
2022-09-14T23:39:32.500Z,14.50
2022-09-14T23:42:04.057Z,14.50
2022-09-14T23:44:34.265Z,14.40
2022-09-14T23:47:07.163Z,14.40
2022-09-14T23:49:37.520Z,14.40
2022-09-14T23:52:07.845Z,14.40
2022-09-14T23:54:38.028Z,14.40
2022-09-14T23:57:08.325Z,14.30
2022-09-14T23:59:38.581Z,14.30
